Time;durP1;ratioP1;P1;durP2;ratioP2;P2;SDS_P1;SDS_P2;PMS_P1;PMS_P2;Temp;Humidity;BMP_temperature;BMP_pressure;BME280_temperature;BME280_humidity;BME280_pressure;Samples;Min_cycle;Max_cycle;Signal;HPM_P1;HPM_P2
2022/12/02 00:01:38;;;;;;;6.82;1.75;;;23.90;99.90;;;;;;5053533;28;20677;-82
2022/12/02 00:04:24;;;;;;;4.93;1.38;;;23.90;99.90;;;;;;5070011;28;20206;-82
2022/12/02 00:06:55;;;;;;;3.65;1.42;;;23.70;99.90;;;;;;5069836;28;20206;-82
2022/12/02 00:09:30;;;;;;;3.97;1.35;;;23.90;99.90;;;;;;5068123;28;20204;-82
2022/12/02 00:12:03;;;;;;;5.90;1.42;;;24.10;99.90;;;;;;5068181;28;20203;-82
2022/12/02 00:14:37;;;;;;;5.13;1.35;;;24.10;99.90;;;;;;5072995;28;20283;-83
2022/12/02 00:17:10;;;;;;;3.70;1.40;;;24.20;99.90;;;;;;5064230;28;20204;-82
2022/12/02 00:19:41;;;;;;;4.68;1.40;;;24.30;99.90;;;;;;5057748;28;20216;-82
2022/12/02 00:22:12;;;;;;;4.78;1.15;;;24.30;99.90;;;;;;5052932;28;20220;-83
2022/12/02 00:24:43;;;;;;;4.75;1.40;;;24.20;99.90;;;;;;5052665;28;20215;-83
2022/12/02 00:27:14;;;;;;;4.70;1.33;;;24.20;99.90;;;;;;5062105;28;20226;-82
2022/12/02 00:29:45;;;;;;;4.25;1.17;;;24.20;99.90;;;;;;5071301;28;20577;-82
2022/12/02 00:32:19;;;;;;;3.88;1.23;;;24.30;99.90;;;;;;5072873;28;20292;-82
2022/12/02 00:34:50;;;;;;;8.07;1.50;;;24.30;99.90;;;;;;5072952;28;20199;-82
2022/12/02 00:37:21;;;;;;;5.25;1.50;;;24.40;99.90;;;;;;5072498;28;20210;-83
2022/12/02 00:39:52;;;;;;;7.13;1.63;;;24.30;99.90;;;;;;5059945;28;20291;-82
2022/12/02 00:42:22;;;;;;;3.17;1.13;;;24.30;99.90;;;;;;5052856;28;20201;-81
2022/12/02 00:47:42;;;;;;;4.78;1.25;;;24.20;99.90;;;;;;5071713;28;20230;-81
2022/12/02 00:50:14;;;;;;;5.57;1.40;;;24.10;99.90;;;;;;5072490;28;20227;-83
2022/12/02 00:52:45;;;;;;;4.53;1.13;;;24.10;99.90;;;;;;5072339;28;20227;-82
2022/12/02 00:55:16;;;;;;;3.60;1.38;;;24.00;99.90;;;;;;5071909;28;20340;-83
2022/12/02 00:57:47;;;;;;;7.55;1.42;;;24.00;99.90;;;;;;5072088;28;20246;-83
2022/12/02 01:00:18;;;;;;;7.45;1.60;;;24.20;99.90;;;;;;5075416;28;20195;-83
2022/12/02 01:02:52;;;;;;;4.43;1.58;;;24.50;99.90;;;;;;5069825;28;20238;-82
2022/12/02 01:05:23;;;;;;;3.70;1.40;;;24.70;99.90;;;;;;5072020;28;20314;-82
2022/12/02 01:07:54;;;;;;;4.95;1.38;;;24.70;99.90;;;;;;5078879;28;20257;-82
2022/12/02 01:10:25;;;;;;;1.83;0.95;;;24.90;99.90;;;;;;5074565;28;20738;-83
2022/12/02 01:12:58;;;;;;;7.47;1.70;;;25.00;99.90;;;;;;5071852;28;20192;-83
2022/12/02 01:15:29;;;;;;;3.90;1.30;;;25.10;99.90;;;;;;5071895;28;20214;-82
2022/12/02 01:18:02;;;;;;;3.97;1.10;;;25.20;99.90;;;;;;5072442;28;20188;-83
2022/12/02 01:20:33;;;;;;;4.93;1.35;;;25.50;99.90;;;;;;5074036;28;20277;-81
2022/12/02 01:23:03;;;;;;;3.75;1.33;;;25.50;99.90;;;;;;5073303;28;20286;-81
2022/12/02 01:25:35;;;;;;;5.78;1.52;;;25.50;99.90;;;;;;5070770;28;20195;-83
2022/12/02 01:28:06;;;;;;;3.53;1.15;;;25.60;99.90;;;;;;5071635;28;20224;-82
2022/12/02 01:30:37;;;;;;;3.65;1.25;;;25.20;99.90;;;;;;5071742;28;20212;-83
2022/12/02 01:33:10;;;;;;;7.20;1.65;;;25.30;99.90;;;;;;5071615;28;20508;-83
2022/12/02 01:35:41;;;;;;;4.22;1.23;;;25.50;99.90;;;;;;5070812;28;20271;-83
2022/12/02 01:38:12;;;;;;;4.88;1.38;;;25.80;99.90;;;;;;5053441;28;20676;-82
2022/12/02 01:40:43;;;;;;;4.18;1.40;;;25.80;99.90;;;;;;5052918;28;20634;-82
2022/12/02 01:43:15;;;;;;;3.83;1.30;;;25.90;99.90;;;;;;5072058;28;20196;-83
2022/12/02 01:45:47;;;;;;;3.40;1.45;;;25.80;99.90;;;;;;5071448;28;20199;-83
2022/12/02 01:48:20;;;;;;;5.97;1.98;;;25.70;99.90;;;;;;5068605;28;20211;-84
2022/12/02 01:50:51;;;;;;;5.13;1.88;;;25.80;99.90;;;;;;5059993;28;20226;-83
2022/12/02 01:53:23;;;;;;;2.42;1.40;;;25.60;99.90;;;;;;5068481;28;20216;-83
2022/12/02 01:55:54;;;;;;;4.78;1.27;;;25.30;99.90;;;;;;5070190;28;20263;-83
2022/12/02 01:58:28;;;;;;;2.78;1.30;;;25.20;99.90;;;;;;5071070;28;20192;-83
2022/12/02 02:00:59;;;;;;;7.32;1.60;;;25.20;99.90;;;;;;5071471;28;20565;-84
2022/12/02 02:03:33;;;;;;;3.80;1.30;;;25.30;99.90;;;;;;5071187;28;20543;-83
2022/12/02 02:06:03;;;;;;;3.95;1.10;;;25.30;99.90;;;;;;5070950;28;20204;-83
2022/12/02 02:08:34;;;;;;;3.85;1.27;;;25.50;99.90;;;;;;5067602;28;20232;-82
2022/12/02 02:11:05;;;;;;;3.95;1.33;;;25.50;99.90;;;;;;5069735;28;20204;-83
2022/12/02 02:13:36;;;;;;;4.60;1.52;;;25.80;99.90;;;;;;5071050;28;20196;-83
2022/12/02 02:16:07;;;;;;;6.65;1.63;;;25.70;99.90;;;;;;5073843;28;20263;-83
2022/12/02 02:18:41;;;;;;;4.60;1.40;;;25.70;99.90;;;;;;5067293;28;20591;-84
2022/12/02 02:21:16;;;;;;;6.95;1.27;;;26.00;99.90;;;;;;5070683;28;20207;-83
2022/12/02 02:23:49;;;;;;;3.53;1.05;;;26.30;99.90;;;;;;5074668;28;20195;-83
2022/12/02 02:26:20;;;;;;;3.35;1.00;;;26.20;99.90;;;;;;5073263;28;20595;-83
2022/12/02 02:28:53;;;;;;;4.20;1.30;;;26.10;99.90;;;;;;5069028;28;20223;-84
2022/12/02 02:31:24;;;;;;;3.83;1.60;;;25.80;99.90;;;;;;5070697;28;20222;-84
2022/12/02 02:33:55;;;;;;;3.67;1.50;;;25.70;99.90;;;;;;5069649;28;20196;-83
2022/12/02 02:36:26;;;;;;;5.55;1.20;;;25.90;99.90;;;;;;5070341;28;20196;-84
2022/12/02 02:38:59;;;;;;;6.88;1.80;;;25.80;99.90;;;;;;5070435;28;20597;-84
2022/12/02 02:41:30;;;;;;;5.35;1.55;;;25.50;99.90;;;;;;5062583;28;20244;-83
2022/12/02 02:44:02;;;;;;;3.92;1.40;;;25.60;99.90;;;;;;5051157;28;20610;-83
2022/12/02 02:46:33;;;;;;;4.85;1.48;;;25.80;99.90;;;;;;5070430;28;20718;-83
2022/12/02 02:49:04;;;;;;;5.10;1.30;;;26.00;99.90;;;;;;5070953;28;20226;-83
2022/12/02 02:51:36;;;;;;;3.28;1.35;;;25.90;99.90;;;;;;5069101;28;20671;-84
2022/12/02 02:54:08;;;;;;;5.10;1.27;;;25.80;99.90;;;;;;5071204;28;20206;-83
2022/12/02 02:56:39;;;;;;;4.25;1.38;;;25.30;99.90;;;;;;5070426;28;20633;-84
2022/12/02 02:59:15;;;;;;;4.95;1.38;;;25.10;99.90;;;;;;5078828;28;20287;-84
2022/12/02 03:01:47;;;;;;;4.85;1.25;;;24.80;99.90;;;;;;5081253;28;20257;-83
2022/12/02 03:04:21;;;;;;;5.53;1.52;;;24.60;99.90;;;;;;5075332;28;20199;-83
2022/12/02 03:06:53;;;;;;;5.07;1.70;;;24.50;99.90;;;;;;5070002;28;20202;-82
2022/12/02 03:09:28;;;;;;;7.28;1.95;;;24.30;99.90;;;;;;5067406;28;20231;-84
2022/12/02 03:12:00;;;;;;;7.15;1.73;;;24.30;99.90;;;;;;5061177;28;20598;-83
2022/12/02 03:14:32;;;;;;;6.40;1.98;;;24.10;99.90;;;;;;5062230;28;20188;-84
2022/12/02 03:17:04;;;;;;;6.20;2.05;;;24.20;99.90;;;;;;5059497;28;20291;-84
2022/12/02 03:19:36;;;;;;;4.45;1.98;;;24.10;99.90;;;;;;5068103;28;20242;-84
2022/12/02 03:22:08;;;;;;;5.03;1.58;;;24.30;99.90;;;;;;5069417;28;20199;-84
2022/12/02 03:24:41;;;;;;;5.68;1.83;;;24.90;99.90;;;;;;5068904;28;20196;-84
2022/12/02 03:27:13;;;;;;;2.88;1.40;;;25.30;99.90;;;;;;5071446;28;20207;-83
2022/12/02 03:29:44;;;;;;;4.13;1.15;;;25.30;99.90;;;;;;5076766;28;20227;-82
2022/12/02 03:32:15;;;;;;;5.07;1.50;;;25.10;99.90;;;;;;5070619;28;20196;-83
2022/12/02 03:34:47;;;;;;;4.43;1.13;;;25.10;99.90;;;;;;5069990;28;20642;-84
2022/12/02 03:37:18;;;;;;;3.55;1.10;;;24.90;99.90;;;;;;5068329;28;20551;-83
2022/12/02 03:39:52;;;;;;;4.53;1.20;;;24.80;99.90;;;;;;5068661;28;20204;-83
2022/12/02 03:42:23;;;;;;;3.53;1.10;;;24.80;99.90;;;;;;5054577;28;20607;-83
2022/12/02 03:44:54;;;;;;;4.65;1.10;;;25.20;99.90;;;;;;5050349;28;20204;-83
2022/12/02 03:47:24;;;;;;;2.88;1.08;;;25.20;99.90;;;;;;5070653;28;20654;-82
2022/12/02 03:49:55;;;;;;;3.63;1.20;;;25.10;99.90;;;;;;5074098;28;20231;-82
2022/12/02 03:52:26;;;;;;;3.17;1.25;;;25.30;99.90;;;;;;5071722;28;20196;-82
2022/12/02 03:54:59;;;;;;;4.82;1.30;;;25.40;99.90;;;;;;5073781;28;20196;-82
2022/12/02 03:57:33;;;;;;;4.57;1.10;;;25.70;99.90;;;;;;5072967;28;20210;-81
2022/12/02 04:00:05;;;;;;;2.95;1.00;;;26.00;99.90;;;;;;5073987;28;20195;-82
2022/12/02 04:02:36;;;;;;;2.25;1.10;;;25.90;99.90;;;;;;5064681;28;20670;-83
2022/12/02 04:05:08;;;;;;;2.53;1.27;;;26.00;99.90;;;;;;5055939;28;20664;-82
2022/12/02 04:07:39;;;;;;;4.15;1.10;;;26.20;99.90;;;;;;5071567;28;20252;-82
2022/12/02 04:10:13;;;;;;;3.03;1.10;;;26.40;99.90;;;;;;5061823;28;20315;-82
2022/12/02 04:12:44;;;;;;;3.55;1.38;;;26.30;99.50;;;;;;5061277;28;20210;-82
2022/12/02 04:15:15;;;;;;;3.58;1.17;;;26.30;99.90;;;;;;5071438;28;20573;-81
2022/12/02 04:17:46;;;;;;;1.95;1.00;;;26.30;99.80;;;;;;5073307;28;20238;-81
2022/12/02 04:20:17;;;;;;;3.78;1.17;;;26.40;99.50;;;;;;5073284;28;20245;-82
2022/12/02 04:22:47;;;;;;;3.13;1.17;;;26.70;98.70;;;;;;5073433;28;20210;-81
2022/12/02 04:25:20;;;;;;;3.10;1.15;;;26.60;97.40;;;;;;5073123;28;20207;-81
2022/12/02 04:27:51;;;;;;;3.20;0.88;;;26.70;99.00;;;;;;5072021;28;20286;-82
2022/12/02 04:30:24;;;;;;;6.63;1.48;;;27.00;98.90;;;;;;5071759;28;20590;-82
2022/12/02 04:32:55;;;;;;;4.60;1.33;;;26.90;97.70;;;;;;5072998;28;20223;-82
2022/12/02 04:35:26;;;;;;;4.07;1.20;;;27.10;98.60;;;;;;5079622;28;20638;-81
2022/12/02 04:37:57;;;;;;;3.67;1.20;;;27.20;98.20;;;;;;5073235;28;20195;-82
2022/12/02 04:40:30;;;;;;;4.13;1.10;;;27.20;97.50;;;;;;5073423;28;20200;-82
2022/12/02 04:43:01;;;;;;;2.97;1.10;;;27.60;97.00;;;;;;5067911;28;20204;-82
2022/12/02 04:45:32;;;;;;;2.63;0.90;;;28.00;95.00;;;;;;5053422;28;20284;-82
2022/12/02 04:48:04;;;;;;;5.28;1.48;;;27.80;94.10;;;;;;5072636;28;20199;-82
2022/12/02 04:50:38;;;;;;;2.63;1.20;;;27.80;94.70;;;;;;5075068;28;20316;-81
2022/12/02 04:53:09;;;;;;;3.08;1.10;;;27.90;94.80;;;;;;5072840;28;20200;-82
2022/12/02 04:55:45;;;;;;;4.63;1.02;;;28.10;94.70;;;;;;5066529;28;20260;-81
2022/12/02 04:58:16;;;;;;;3.67;0.90;;;28.40;92.70;;;;;;5052983;28;20196;-82
2022/12/02 05:00:47;;;;;;;3.67;1.17;;;28.40;91.40;;;;;;5040879;28;20197;-82
2022/12/02 05:03:17;;;;;;;4.47;1.50;;;28.30;91.80;;;;;;5040188;28;20186;-82
2022/12/02 05:05:49;;;;;;;3.58;1.10;;;28.30;92.00;;;;;;5031521;28;20233;-81
2022/12/02 05:08:19;;;;;;;3.50;1.40;;;28.20;92.20;;;;;;5034381;28;20316;-81
2022/12/02 05:10:52;;;;;;;4.32;1.30;;;28.50;91.00;;;;;;5048918;28;20204;-82
2022/12/02 05:13:23;;;;;;;2.55;1.13;;;28.00;90.80;;;;;;5038963;28;20196;-81
2022/12/02 05:15:54;;;;;;;3.33;1.30;;;27.90;90.70;;;;;;5052761;28;20218;-82
2022/12/02 05:18:24;;;;;;;5.30;1.23;;;28.00;89.80;;;;;;5041175;28;20205;-82
2022/12/02 05:20:55;;;;;;;3.75;1.20;;;27.50;90.80;;;;;;5052833;28;20287;-82
2022/12/02 05:23:28;;;;;;;2.15;0.80;;;27.20;90.30;;;;;;5052670;28;20196;-81
2022/12/02 05:26:01;;;;;;;3.78;1.20;;;27.60;90.00;;;;;;5052093;28;20274;-81
2022/12/02 05:28:32;;;;;;;2.83;0.85;;;28.00;88.50;;;;;;5052699;28;20208;-81
2022/12/02 05:31:03;;;;;;;4.03;1.00;;;27.80;86.40;;;;;;5052756;28;20204;-82
2022/12/02 05:33:34;;;;;;;2.95;0.90;;;28.00;86.30;;;;;;5052485;28;20196;-81
2022/12/02 05:36:11;;;;;;;3.92;1.17;;;28.50;87.20;;;;;;5044967;28;20227;-82
2022/12/02 05:38:42;;;;;;;2.53;0.90;;;28.80;85.10;;;;;;5055327;28;20197;-81
2022/12/02 05:41:15;;;;;;;1.83;0.88;;;29.20;81.70;;;;;;5043920;28;20731;-81
2022/12/02 05:43:46;;;;;;;3.83;1.02;;;29.70;79.40;;;;;;5032214;28;20205;-80
2022/12/02 05:46:19;;;;;;;2.25;0.88;;;29.20;77.70;;;;;;5032106;28;20199;-81
2022/12/02 05:48:51;;;;;;;2.15;0.88;;;29.50;81.10;;;;;;5032167;28;22169;-82
2022/12/02 05:51:24;;;;;;;2.47;0.88;;;29.60;78.80;;;;;;5033372;28;20229;-81
2022/12/02 05:53:54;;;;;;;2.88;0.95;;;29.90;78.30;;;;;;5042169;28;20736;-81
2022/12/02 05:56:29;;;;;;;2.95;1.00;;;29.30;80.00;;;;;;5068189;28;20662;-81
2022/12/02 05:59:04;;;;;;;2.47;0.90;;;29.10;80.50;;;;;;5076938;28;20266;-82
2022/12/02 06:01:37;;;;;;;2.72;1.00;;;28.40;80.80;;;;;;5073154;28;20278;-82
2022/12/02 06:04:14;;;;;;;3.05;0.90;;;27.80;81.70;;;;;;5060657;28;20236;-82
2022/12/02 06:06:45;;;;;;;3.85;1.17;;;28.00;84.50;;;;;;5050719;28;20311;-81
2022/12/02 06:09:19;;;;;;;2.78;1.00;;;28.00;86.90;;;;;;5040809;28;20267;-80
2022/12/02 06:11:52;;;;;;;5.07;1.20;;;28.00;89.80;;;;;;5029505;28;20186;-80
2022/12/02 06:14:24;;;;;;;4.93;1.00;;;28.10;84.80;;;;;;5044386;28;20193;-82
2022/12/02 06:16:55;;;;;;;3.33;1.00;;;27.70;83.60;;;;;;5038685;28;20211;-81
2022/12/02 06:19:29;;;;;;;2.72;0.90;;;27.30;86.40;;;;;;5030954;28;20185;-81
2022/12/02 06:22:01;;;;;;;2.38;1.10;;;26.90;89.80;;;;;;5033671;28;20201;-81
2022/12/02 06:24:35;;;;;;;2.70;1.10;;;26.60;88.70;;;;;;5033198;28;20284;-81
2022/12/02 06:27:08;;;;;;;2.40;1.05;;;26.10;90.90;;;;;;5050517;28;20204;-81
2022/12/02 06:29:38;;;;;;;3.15;1.23;;;25.80;91.70;;;;;;5048466;28;20220;-80
2022/12/02 06:32:17;;;;;;;3.42;1.60;;;25.60;92.40;;;;;;5049567;28;20189;-80
2022/12/02 06:34:50;;;;;;;2.67;0.93;;;25.30;92.70;;;;;;5050669;28;20196;-80
2022/12/02 06:37:23;;;;;;;3.33;1.20;;;25.00;94.10;;;;;;5047776;28;20200;-81
2022/12/02 06:39:58;;;;;;;2.78;1.00;;;24.80;94.20;;;;;;5052919;28;20203;-81
2022/12/02 06:42:34;;;;;;;6.22;1.42;;;24.80;94.90;;;;;;5055441;28;20339;-81
2022/12/02 06:45:20;;;;;;;3.25;1.38;;;25.30;95.10;;;;;;5050463;28;20208;-81
2022/12/02 06:47:57;;;;;;;5.15;1.48;;;25.20;96.20;;;;;;5039176;28;20655;-80
2022/12/02 06:50:37;;;;;;;4.40;1.92;;;25.10;97.30;;;;;;5030030;28;20229;-80
2022/12/02 06:53:27;;;;;;;3.80;1.48;;;25.50;98.00;;;;;;5030556;28;20203;-81
2022/12/02 06:56:02;;;;;;;4.32;1.48;;;26.30;96.90;;;;;;5051298;28;20623;-81
2022/12/02 06:58:37;;;;;;;3.20;1.35;;;27.20;93.80;;;;;;5050345;28;20202;-81
2022/12/02 07:01:27;;;;;;;3.53;1.55;;;27.30;93.20;;;;;;5053156;28;20210;-81
2022/12/02 07:04:30;;;;;;;5.22;1.40;;;26.80;94.10;;;;;;5069805;28;20623;-81
2022/12/02 07:07:05;;;;;;;4.25;1.10;;;25.90;95.20;;;;;;5069918;28;20202;-81
2022/12/02 07:09:40;;;;;;;3.63;1.50;;;25.40;94.80;;;;;;5066789;28;20704;-80
2022/12/02 07:12:17;;;;;;;2.85;1.20;;;25.70;95.90;;;;;;5070501;28;20199;-80
2022/12/02 07:14:52;;;;;;;3.58;1.10;;;26.00;95.60;;;;;;5069485;28;20592;-80
2022/12/02 07:17:29;;;;;;;3.97;1.35;;;26.60;94.60;;;;;;5063249;28;20688;-82
2022/12/02 07:20:14;;;;;;;2.72;1.08;;;27.20;92.90;;;;;;5070692;28;20307;-81
2022/12/02 07:22:48;;;;;;;3.90;1.27;;;27.00;92.60;;;;;;5072633;28;20195;-81
2022/12/02 07:25:39;;;;;;;3.45;1.40;;;27.20;94.00;;;;;;5075364;28;20202;-81
2022/12/02 07:28:25;;;;;;;4.22;1.40;;;27.50;93.30;;;;;;5075229;28;20202;-81
2022/12/02 07:31:02;;;;;;;2.38;1.17;;;27.60;92.90;;;;;;5072537;28;20227;-81
2022/12/02 07:33:34;;;;;;;5.30;1.45;;;27.50;93.30;;;;;;5074212;28;20290;-82
2022/12/02 07:36:06;;;;;;;2.35;0.90;;;27.10;93.20;;;;;;5072405;28;20211;-82
2022/12/02 07:38:38;;;;;;;3.35;1.20;;;27.00;93.20;;;;;;5074088;28;20207;-81
2022/12/02 07:41:09;;;;;;;3.90;1.17;;;26.40;94.10;;;;;;5067473;28;20234;-83
2022/12/02 07:43:40;;;;;;;3.78;1.17;;;26.30;94.50;;;;;;5094879;28;20207;-82
2022/12/02 07:46:13;;;;;;;3.65;1.30;;;25.90;95.10;;;;;;5092731;28;20188;-82
2022/12/02 07:48:44;;;;;;;2.33;1.10;;;25.50;96.50;;;;;;5086870;28;20199;-81
2022/12/02 07:51:15;;;;;;;2.35;0.98;;;25.30;96.90;;;;;;5067562;28;20228;-81
2022/12/02 07:53:46;;;;;;;2.75;0.90;;;25.00;97.00;;;;;;5070226;28;20202;-81
2022/12/02 07:56:17;;;;;;;2.50;1.05;;;24.50;97.90;;;;;;5058775;28;20247;-80
2022/12/02 07:58:48;;;;;;;3.95;1.13;;;24.30;99.40;;;;;;5053939;28;20205;-80
2022/12/02 08:01:20;;;;;;;4.57;1.30;;;24.10;99.90;;;;;;5054409;28;20211;-81
2022/12/02 08:03:51;;;;;;;3.03;1.38;;;23.90;99.90;;;;;;5054446;28;20222;-81
2022/12/02 08:06:22;;;;;;;3.92;1.65;;;23.70;99.90;;;;;;5055917;28;20345;-80
2022/12/02 08:08:53;;;;;;;3.55;1.52;;;23.70;99.90;;;;;;5073883;28;20228;-82
2022/12/02 08:11:23;;;;;;;5.80;1.60;;;23.50;99.90;;;;;;5074589;28;20234;-81
2022/12/02 08:13:55;;;;;;;5.45;1.88;;;23.40;99.90;;;;;;5072709;28;20206;-80
2022/12/02 08:16:27;;;;;;;6.75;4.00;;;23.30;99.90;;;;;;5075741;28;20282;-81
2022/12/02 08:18:59;;;;;;;3.60;1.48;;;23.20;99.90;;;;;;5073910;28;20195;-81
2022/12/02 08:21:31;;;;;;;4.20;1.52;;;23.10;99.90;;;;;;5057075;28;20262;-80
2022/12/02 08:24:02;;;;;;;5.40;2.13;;;23.00;99.90;;;;;;5064201;28;20193;-80
2022/12/02 08:26:33;;;;;;;3.28;1.30;;;23.00;99.90;;;;;;5077813;28;20238;-81
2022/12/02 08:29:05;;;;;;;7.55;2.22;;;22.90;99.90;;;;;;5081805;28;20251;-81
2022/12/02 08:31:38;;;;;;;5.60;2.13;;;22.80;99.90;;;;;;5078508;28;20265;-80
2022/12/02 08:34:08;;;;;;;5.97;2.05;;;22.70;99.90;;;;;;5072691;28;20196;-79
2022/12/02 08:36:39;;;;;;;5.55;2.33;;;22.60;99.90;;;;;;5068611;28;20192;-80
2022/12/02 08:39:10;;;;;;;4.78;1.70;;;22.60;99.90;;;;;;5076061;28;20725;-80
2022/12/02 08:41:41;;;;;;;4.95;1.60;;;22.60;99.90;;;;;;5070203;28;20554;-80
2022/12/02 08:44:12;;;;;;;6.32;1.98;;;22.50;99.90;;;;;;5055785;28;20201;-80
2022/12/02 08:46:44;;;;;;;7.03;1.88;;;22.60;99.90;;;;;;5056000;28;20201;-80
2022/12/02 08:49:16;;;;;;;2.72;1.30;;;22.50;99.90;;;;;;5055840;28;20196;-80
2022/12/02 08:51:47;;;;;;;3.45;1.30;;;22.40;99.90;;;;;;5056041;28;20725;-80
2022/12/02 08:54:19;;;;;;;3.40;1.60;;;22.40;99.90;;;;;;5062134;28;20192;-80
2022/12/02 08:56:50;;;;;;;4.40;1.90;;;22.30;99.90;;;;;;5063423;28;20228;-81
2022/12/02 08:59:21;;;;;;;7.10;2.60;;;22.30;99.90;;;;;;5040471;28;20228;-80
2022/12/02 09:01:54;;;;;;;4.80;1.60;;;22.20;99.90;;;;;;5047042;28;20657;-83
2022/12/02 09:04:25;;;;;;;3.28;1.45;;;22.20;99.90;;;;;;5035437;28;20766;-78
2022/12/02 09:06:56;;;;;;;3.72;1.50;;;22.10;99.90;;;;;;5063305;28;20201;-81
2022/12/02 09:09:29;;;;;;;2.78;1.27;;;22.00;99.90;;;;;;5069857;28;20227;-81
2022/12/02 09:12:00;;;;;;;4.38;1.42;;;22.00;99.90;;;;;;5063886;28;20200;-81
2022/12/02 09:14:30;;;;;;;3.50;1.40;;;21.90;99.90;;;;;;5066496;28;20192;-81
2022/12/02 09:17:03;;;;;;;4.38;1.52;;;21.90;99.90;;;;;;5053757;28;20224;-80
2022/12/02 09:19:36;;;;;;;5.03;1.50;;;21.90;99.90;;;;;;5069181;28;20276;-79
2022/12/02 09:22:07;;;;;;;4.07;1.10;;;21.80;99.90;;;;;;5061609;28;20338;-80
2022/12/02 09:24:41;;;;;;;4.68;1.27;;;21.70;99.90;;;;;;5068500;28;20272;-80
2022/12/02 09:27:14;;;;;;;5.65;1.38;;;21.70;99.90;;;;;;5063694;28;20199;-81
2022/12/02 09:29:45;;;;;;;4.10;1.33;;;21.60;99.90;;;;;;5068196;28;20200;-80
2022/12/02 09:32:18;;;;;;;4.80;1.33;;;21.50;99.90;;;;;;5064077;28;20265;-80
2022/12/02 09:34:51;;;;;;;4.05;1.63;;;21.50;99.90;;;;;;5052016;28;20212;-80
2022/12/02 09:37:23;;;;;;;4.57;1.63;;;21.50;99.90;;;;;;5066750;28;20260;-80
2022/12/02 09:39:55;;;;;;;7.82;1.50;;;21.50;99.90;;;;;;5063395;28;20200;-80
2022/12/02 09:42:28;;;;;;;3.55;1.27;;;21.50;99.90;;;;;;5064335;28;20215;-80
2022/12/02 09:45:01;;;;;;;2.75;1.08;;;21.50;99.90;;;;;;5068125;28;20270;-81
2022/12/02 09:47:34;;;;;;;3.72;1.10;;;21.50;99.90;;;;;;5062777;28;20196;-80
2022/12/02 09:50:06;;;;;;;4.25;1.50;;;21.50;99.90;;;;;;5053412;28;20308;-79
2022/12/02 09:52:37;;;;;;;4.90;2.63;;;21.60;99.90;;;;;;5044463;28;20534;-81
2022/12/02 09:55:15;;;;;;;5.13;1.92;;;21.40;99.90;;;;;;5052385;28;20202;-81
2022/12/02 09:57:46;;;;;;;3.85;1.52;;;21.40;99.90;;;;;;5082393;28;20202;-81
2022/12/02 10:00:19;;;;;;;5.15;1.55;;;21.40;99.90;;;;;;5087880;28;20287;-81
2022/12/02 10:02:56;;;;;;;4.53;1.50;;;21.40;99.90;;;;;;5090179;28;20192;-81
2022/12/02 10:05:29;;;;;;;3.75;1.40;;;21.30;99.90;;;;;;5070348;28;20235;-81
2022/12/02 10:08:02;;;;;;;4.82;1.58;;;21.30;99.90;;;;;;5078468;28;20224;-80
2022/12/02 10:10:38;;;;;;;6.18;1.60;;;21.20;99.90;;;;;;5081138;28;20214;-81
2022/12/02 10:13:12;;;;;;;4.60;1.42;;;21.20;99.90;;;;;;5082321;28;20291;-79
2022/12/02 10:15:43;;;;;;;4.30;1.52;;;21.20;99.90;;;;;;5074136;28;20697;-83
2022/12/02 10:18:20;;;;;;;5.63;1.65;;;21.20;99.90;;;;;;5078230;28;20204;-83
2022/12/02 10:20:51;;;;;;;5.60;1.65;;;21.10;99.90;;;;;;5085746;28;20204;-83
2022/12/02 10:23:23;;;;;;;4.88;1.90;;;21.20;99.90;;;;;;5081309;28;20266;-83
2022/12/02 10:25:57;;;;;;;4.00;1.77;;;21.20;99.90;;;;;;5075643;28;20231;-83
2022/12/02 10:28:30;;;;;;;6.20;1.60;;;21.20;99.90;;;;;;5086111;28;20207;-83
2022/12/02 10:31:03;;;;;;;4.15;1.40;;;21.20;99.90;;;;;;5073702;28;20247;-82
2022/12/02 10:33:40;;;;;;;5.15;1.52;;;21.20;99.90;;;;;;5084762;28;20192;-82
2022/12/02 10:36:12;;;;;;;4.80;1.50;;;21.20;99.90;;;;;;5072973;28;20223;-83
2022/12/02 10:38:44;;;;;;;5.13;1.40;;;21.10;99.90;;;;;;5078850;28;20196;-84
2022/12/02 10:41:29;;;;;;;8.13;1.60;;;21.10;99.90;;;;;;5084082;28;20208;-82
2022/12/02 10:44:14;;;;;;;5.18;1.50;;;21.10;99.90;;;;;;5084646;28;20243;-83
2022/12/02 10:46:44;;;;;;;4.07;1.60;;;21.00;99.90;;;;;;5089635;28;20206;-83
2022/12/02 10:49:34;;;;;;;5.88;1.55;;;21.00;99.90;;;;;;5089820;28;20555;-84
2022/12/02 10:52:09;;;;;;;3.35;1.30;;;21.00;99.90;;;;;;5088915;28;20224;-85
2022/12/02 10:54:45;;;;;;;8.23;1.83;;;21.10;99.90;;;;;;5092545;28;20211;-84
2022/12/02 10:57:21;;;;;;;3.72;1.20;;;21.00;99.90;;;;;;5070707;28;20236;-84
2022/12/02 10:59:53;;;;;;;3.83;1.30;;;21.10;99.90;;;;;;5069464;28;20283;-84
2022/12/02 11:02:34;;;;;;;5.68;1.60;;;21.10;99.90;;;;;;5068067;28;20224;-84
2022/12/02 11:05:16;;;;;;;4.70;1.48;;;21.10;99.90;;;;;;5068842;28;20200;-82
2022/12/02 11:07:56;;;;;;;4.25;1.60;;;21.00;99.90;;;;;;5066349;28;20211;-81
2022/12/02 11:10:29;;;;;;;5.25;1.52;;;21.00;99.90;;;;;;5040720;28;20216;-81
2022/12/02 11:13:09;;;;;;;7.95;1.52;;;21.00;99.90;;;;;;5030584;28;20201;-82
2022/12/02 11:15:46;;;;;;;6.43;1.60;;;20.90;99.90;;;;;;5044772;28;20283;-82
2022/12/02 11:18:52;;;;;;;5.18;1.75;;;21.00;99.90;;;;;;5030673;28;20548;-81
2022/12/02 11:21:40;;;;;;;5.68;1.60;;;20.90;99.90;;;;;;5047055;28;20568;-82
2022/12/02 11:24:38;;;;;;;6.28;1.50;;;21.00;99.90;;;;;;5032628;28;20286;-82
2022/12/02 11:27:12;;;;;;;4.70;1.63;;;21.00;99.90;;;;;;5046674;28;20196;-82
2022/12/02 11:29:44;;;;;;;6.20;1.90;;;20.90;99.90;;;;;;5050190;28;20192;-81
2022/12/02 11:32:42;;;;;;;4.95;1.75;;;20.90;99.90;;;;;;5045775;28;20747;-81
2022/12/02 11:35:18;;;;;;;4.82;1.63;;;20.90;99.90;;;;;;5032457;28;20193;-82
2022/12/02 11:38:11;;;;;;;5.45;1.38;;;20.90;99.90;;;;;;5029980;28;20564;-81
2022/12/02 11:41:02;;;;;;;8.85;2.08;;;20.90;99.90;;;;;;5029840;28;20575;-82
2022/12/02 11:43:57;;;;;;;4.90;1.63;;;20.80;99.90;;;;;;5043254;28;20201;-83
2022/12/02 11:46:43;;;;;;;4.72;1.38;;;20.80;99.90;;;;;;5031501;28;20197;-82
2022/12/02 11:49:36;;;;;;;7.45;1.60;;;20.80;99.90;;;;;;5030455;28;20201;-82
2022/12/02 11:52:23;;;;;;;4.90;1.40;;;20.80;99.90;;;;;;5030349;28;20279;-82
2022/12/02 11:55:13;;;;;;;6.25;1.77;;;20.70;99.90;;;;;;5031826;28;20197;-82
2022/12/02 11:57:48;;;;;;;7.35;1.95;;;20.70;99.90;;;;;;5029984;28;20216;-81
2022/12/02 12:00:29;;;;;;;5.22;1.52;;;20.70;99.90;;;;;;5030292;28;20216;-81
2022/12/02 12:03:12;;;;;;;3.03;1.38;;;20.70;99.90;;;;;;5046413;28;20202;-80
2022/12/02 12:05:43;;;;;;;7.18;1.88;;;20.70;99.90;;;;;;5049280;28;20678;-81
2022/12/02 12:08:28;;;;;;;4.10;1.50;;;20.70;99.90;;;;;;5051278;28;20264;-82
2022/12/02 12:11:24;;;;;;;6.03;1.70;;;20.70;99.90;;;;;;5059143;28;20216;-81
2022/12/02 12:14:22;;;;;;;7.88;1.75;;;20.70;99.90;;;;;;5053356;28;20211;-81
2022/12/02 12:17:13;;;;;;;3.47;1.33;;;20.70;99.90;;;;;;5054102;28;20197;-82
2022/12/02 12:19:43;;;;;;;4.65;1.50;;;20.70;99.90;;;;;;5052072;28;20204;-81
2022/12/02 12:22:31;;;;;;;3.90;1.65;;;20.70;99.90;;;;;;5050734;28;20209;-81
2022/12/02 12:25:36;;;;;;;5.47;1.45;;;20.60;99.90;;;;;;5034928;28;20565;-81
2022/12/02 12:28:29;;;;;;;7.72;1.63;;;20.60;99.90;;;;;;5046419;28;20279;-81
2022/12/02 12:31:01;;;;;;;6.30;1.77;;;20.50;99.90;;;;;;5054579;28;20596;-82
2022/12/02 12:33:33;;;;;;;8.20;1.80;;;20.50;99.90;;;;;;5048350;28;20435;-82
2022/12/02 12:36:04;;;;;;;6.45;1.58;;;20.50;99.90;;;;;;5040195;28;20205;-82
2022/12/02 12:38:38;;;;;;;7.30;1.98;;;20.50;99.90;;;;;;5056344;28;20203;-82
2022/12/02 12:41:10;;;;;;;7.10;1.60;;;20.50;99.90;;;;;;5058734;28;20306;-82
2022/12/02 12:43:43;;;;;;;7.13;1.70;;;20.50;99.90;;;;;;5055950;28;20201;-81
2022/12/02 12:46:14;;;;;;;3.35;1.35;;;20.50;99.90;;;;;;5052884;28;20686;-81
2022/12/02 12:48:45;;;;;;;5.20;1.38;;;20.50;99.90;;;;;;5053922;28;20191;-83
2022/12/02 12:51:16;;;;;;;7.13;1.70;;;20.50;99.90;;;;;;5051797;28;20222;-82
2022/12/02 12:53:47;;;;;;;5.25;1.45;;;20.40;99.90;;;;;;5054453;28;20196;-82
2022/12/02 12:56:18;;;;;;;5.63;1.45;;;20.40;99.90;;;;;;5061119;28;20774;-83
2022/12/02 12:58:51;;;;;;;5.47;1.70;;;20.30;99.90;;;;;;5053235;28;20212;-82
2022/12/02 13:01:22;;;;;;;6.35;1.70;;;20.20;99.90;;;;;;5054845;28;20279;-82
2022/12/02 13:03:52;;;;;;;5.65;1.63;;;20.20;99.90;;;;;;5066652;28;20211;-81
2022/12/02 13:06:23;;;;;;;7.30;2.00;;;20.20;99.90;;;;;;5054579;28;20276;-81
2022/12/02 13:08:54;;;;;;;5.25;1.90;;;20.10;99.90;;;;;;5070815;28;20224;-81
2022/12/02 13:11:25;;;;;;;7.88;1.50;;;20.10;99.90;;;;;;5072602;28;20215;-82
2022/12/02 13:14:00;;;;;;;4.30;1.65;;;20.10;99.90;;;;;;5064594;28;20636;-82
2022/12/02 13:16:31;;;;;;;4.05;1.70;;;20.00;99.90;;;;;;5060157;28;20198;-81
2022/12/02 13:19:02;;;;;;;4.78;1.77;;;20.00;99.90;;;;;;5055048;28;20476;-81
2022/12/02 13:21:33;;;;;;;5.03;1.52;;;20.00;99.90;;;;;;5076786;28;20676;-80
2022/12/02 13:24:04;;;;;;;6.60;1.83;;;19.90;99.90;;;;;;5068431;28;20284;-82
2022/12/02 13:26:35;;;;;;;5.18;1.48;;;19.80;99.90;;;;;;5062948;28;20197;-80